Time,TemperatureF,DewpointF,PressureIn,WindDirection,WindDirectionDegrees,WindSpeedMPH,WindSpeedGustMPH,Humidity,HourlyPrecipIn,Conditions,Clouds,dailyrainin,SoftwareType,DateUTC
2013-04-01 00:03:00,56.8,41.7,28.51,East,90,5.0,6.0,57,0.00,,,0.00,meteohub,2013-04-01 05:03:00,
2013-04-01 00:08:00,57.2,42.6,28.51,NE,45,6.0,6.0,58,0.00,,,0.00,meteohub,2013-04-01 05:08:00,
2013-04-01 00:13:00,57.0,42.4,28.51,East,90,6.0,8.0,58,0.00,,,0.00,meteohub,2013-04-01 05:13:00,
2013-04-01 00:18:00,57.2,42.6,28.51,East,90,5.0,8.0,58,0.00,,,0.00,meteohub,2013-04-01 05:18:00,
2013-04-01 00:23:00,57.6,43.0,28.51,East,90,8.0,8.0,58,0.00,,,0.00,meteohub,2013-04-01 05:23:00,
2013-04-01 00:28:00,57.6,42.4,28.51,SE,135,7.0,8.0,57,0.00,,,0.00,meteohub,2013-04-01 05:28:00,
2013-04-01 00:33:00,57.7,42.6,28.50,East,90,8.0,11.0,57,0.00,,,0.00,meteohub,2013-04-01 05:33:00,
2013-04-01 00:38:00,57.2,42.6,28.50,East,90,7.0,11.0,58,0.00,,,0.00,meteohub,2013-04-01 05:38:00,
2013-04-01 00:43:00,57.0,42.8,28.50,East,90,6.0,11.0,59,0.00,,,0.00,meteohub,2013-04-01 05:43:00,
2013-04-01 00:48:00,57.2,43.0,28.50,East,90,5.0,11.0,59,0.00,,,0.00,meteohub,2013-04-01 05:48:00,
2013-04-01 00:53:00,56.8,42.6,28.50,East,90,6.0,9.0,59,0.00,,,0.00,meteohub,2013-04-01 05:53:00,
2013-04-01 00:58:00,57.0,43.3,28.50,East,90,6.0,8.0,60,0.00,,,0.00,meteohub,2013-04-01 05:58:00,
2013-04-01 01:03:00,56.7,43.0,28.50,East,90,6.0,8.0,60,0.00,,,0.00,meteohub,2013-04-01 06:03:00,
2013-04-01 01:08:00,56.8,43.2,28.51,East,90,4.0,7.0,60,0.00,,,0.00,meteohub,2013-04-01 06:08:00,
2013-04-01 01:13:00,56.5,42.8,28.51,East,90,8.0,8.0,60,0.00,,,0.00,meteohub,2013-04-01 06:13:00,
2013-04-01 01:18:00,56.1,42.8,28.51,East,90,8.0,8.0,61,0.00,,,0.00,meteohub,2013-04-01 06:18:00,
2013-04-01 01:23:00,55.9,43.2,28.51,SE,135,7.0,8.0,62,0.00,,,0.00,meteohub,2013-04-01 06:23:00,
2013-04-01 01:28:00,55.6,42.8,28.51,East,90,5.0,8.0,62,0.00,,,0.00,meteohub,2013-04-01 06:28:00,
2013-04-01 01:33:00,55.4,42.6,28.51,SE,135,4.0,8.0,62,0.00,,,0.00,meteohub,2013-04-01 06:33:00,
2013-04-01 01:39:00,55.0,42.6,28.51,East,90,5.0,7.0,63,0.00,,,0.00,meteohub,2013-04-01 06:39:00,
2013-04-01 01:44:00,54.7,42.8,28.51,East,90,4.0,8.0,64,0.00,,,0.00,meteohub,2013-04-01 06:44:00,
2013-04-01 01:49:00,54.3,42.4,28.51,East,90,6.0,8.0,64,0.00,,,0.00,meteohub,2013-04-01 06:49:00,
2013-04-01 01:54:00,54.3,42.8,28.51,East,90,5.0,8.0,65,0.00,,,0.00,meteohub,2013-04-01 06:54:00,
2013-04-01 01:59:00,53.8,42.3,28.51,East,90,6.0,7.0,65,0.00,,,0.00,meteohub,2013-04-01 06:59:00,
2013-04-01 02:04:00,53.2,42.3,28.51,East,90,5.0,6.0,66,0.00,,,0.00,meteohub,2013-04-01 07:04:00,
2013-04-01 02:09:00,52.9,42.6,28.51,East,90,4.0,6.0,68,0.00,,,0.00,meteohub,2013-04-01 07:09:00,
2013-04-01 02:14:00,52.5,42.3,28.51,East,90,5.0,6.0,68,0.00,,,0.00,meteohub,2013-04-01 07:14:00,
2013-04-01 02:19:00,52.5,42.6,28.51,East,90,4.0,6.0,69,0.00,,,0.00,meteohub,2013-04-01 07:19:00,
2013-04-01 02:24:00,52.0,42.1,28.51,NE,45,4.0,6.0,69,0.00,,,0.00,meteohub,2013-04-01 07:24:00,
2013-04-01 02:29:00,51.4,41.9,28.51,East,90,5.0,6.0,70,0.00,,,0.00,meteohub,2013-04-01 07:29:00,
2013-04-01 02:34:00,51.3,42.3,28.51,East,90,4.0,6.0,71,0.00,,,0.00,meteohub,2013-04-01 07:34:00,
2013-04-01 02:39:00,50.9,42.6,28.51,NE,45,4.0,5.0,73,0.00,,,0.00,meteohub,2013-04-01 07:39:00,
2013-04-01 02:44:00,50.7,42.4,28.51,East,90,4.0,5.0,73,0.00,,,0.00,meteohub,2013-04-01 07:44:00,
2013-04-01 02:49:00,50.9,42.6,28.51,East,90,4.0,4.0,73,0.00,,,0.00,meteohub,2013-04-01 07:49:00,
2013-04-01 02:54:00,50.7,42.8,28.51,East,90,5.0,5.0,74,0.00,,,0.00,meteohub,2013-04-01 07:54:00,
2013-04-01 02:59:00,50.7,42.8,28.51,East,90,6.0,6.0,74,0.00,,,0.00,meteohub,2013-04-01 07:59:00,
2013-04-01 03:04:00,51.3,43.3,28.51,East,90,5.0,6.0,74,0.00,,,0.00,meteohub,2013-04-01 08:04:00,
2013-04-01 03:09:00,51.1,42.8,28.51,East,90,4.0,6.0,73,0.00,,,0.00,meteohub,2013-04-01 08:09:00,
2013-04-01 03:14:00,51.1,42.8,28.51,East,90,5.0,7.0,73,0.00,,,0.00,meteohub,2013-04-01 08:14:00,
2013-04-01 03:19:00,50.7,42.4,28.51,East,90,4.0,7.0,73,0.00,,,0.00,meteohub,2013-04-01 08:19:00,
2013-04-01 03:24:00,51.1,42.8,28.51,East,90,4.0,7.0,73,0.00,,,0.00,meteohub,2013-04-01 08:24:00,
2013-04-01 03:29:00,51.1,42.8,28.51,East,90,4.0,6.0,73,0.00,,,0.00,meteohub,2013-04-01 08:29:00,
2013-04-01 03:34:00,51.1,42.8,28.51,NE,45,4.0,6.0,73,0.00,,,0.00,meteohub,2013-04-01 08:34:00,
2013-04-01 03:39:00,51.3,43.0,28.51,East,90,5.0,5.0,73,0.00,,,0.00,meteohub,2013-04-01 08:39:00,
2013-04-01 03:44:00,51.3,42.6,28.51,East,90,6.0,6.0,72,0.00,,,0.00,meteohub,2013-04-01 08:44:00,
2013-04-01 03:49:00,51.4,42.8,28.51,East,90,6.0,6.0,72,0.00,,,0.00,meteohub,2013-04-01 08:49:00,
2013-04-01 03:54:00,51.8,43.0,28.52,East,90,4.0,6.0,72,0.00,,,0.00,meteohub,2013-04-01 08:54:00,
2013-04-01 03:59:00,51.4,42.4,28.51,East,90,5.0,6.0,71,0.00,,,0.00,meteohub,2013-04-01 08:59:00,
2013-04-01 04:04:00,51.8,42.6,28.51,East,90,7.0,7.0,71,0.00,,,0.00,meteohub,2013-04-01 09:04:00,
2013-04-01 04:09:00,52.2,42.6,28.51,East,90,8.0,8.0,70,0.00,,,0.00,meteohub,2013-04-01 09:09:00,
2013-04-01 04:14:00,52.2,42.3,28.51,East,90,5.0,8.0,69,0.00,,,0.00,meteohub,2013-04-01 09:14:00,
2013-04-01 04:19:00,52.0,42.4,28.51,East,90,6.0,8.0,70,0.00,,,0.00,meteohub,2013-04-01 09:19:00,
2013-04-01 04:24:00,51.8,42.3,28.51,East,90,6.0,8.0,70,0.00,,,0.00,meteohub,2013-04-01 09:24:00,
2013-04-01 04:29:00,51.6,42.1,28.51,East,90,6.0,6.0,70,0.00,,,0.00,meteohub,2013-04-01 09:29:00,
2013-04-01 04:34:00,51.3,41.9,28.51,East,90,4.0,6.0,70,0.00,,,0.00,meteohub,2013-04-01 09:34:00,
2013-04-01 04:39:00,50.9,41.9,28.51,East,90,6.0,6.0,71,0.00,,,0.00,meteohub,2013-04-01 09:39:00,
2013-04-01 04:44:00,50.7,42.1,28.51,East,90,5.0,6.0,72,0.00,,,0.00,meteohub,2013-04-01 09:44:00,
2013-04-01 04:49:00,50.7,42.1,28.51,East,90,3.0,6.0,72,0.00,,,0.00,meteohub,2013-04-01 09:49:00,
2013-04-01 04:54:00,50.4,41.7,28.51,East,90,3.0,6.0,72,0.00,,,0.00,meteohub,2013-04-01 09:54:00,
2013-04-01 04:59:00,50.4,41.7,28.51,East,90,2.0,5.0,72,0.00,,,0.00,meteohub,2013-04-01 09:59:00,
2013-04-01 05:04:00,50.2,41.9,28.51,East,90,2.0,5.0,73,0.00,,,0.00,meteohub,2013-04-01 10:04:00,
2013-04-01 05:09:00,50.2,41.9,28.51,South,180,1.0,4.0,73,0.00,,,0.00,meteohub,2013-04-01 10:09:00,
2013-04-01 05:14:00,50.0,41.7,28.52,SW,225,0.0,3.0,73,0.00,,,0.00,meteohub,2013-04-01 10:14:00,
2013-04-01 05:19:00,49.6,41.7,28.52,South,180,0.0,2.0,74,0.00,,,0.00,meteohub,2013-04-01 10:19:00,
2013-04-01 05:24:00,49.8,41.9,28.52,South,180,0.0,2.0,74,0.00,,,0.00,meteohub,2013-04-01 10:24:00,
2013-04-01 05:29:00,49.3,41.0,28.53,SW,225,0.0,1.0,73,0.00,,,0.00,meteohub,2013-04-01 10:29:00,
2013-04-01 05:34:00,48.2,40.3,28.52,East,90,0.0,0.0,74,0.00,,,0.00,meteohub,2013-04-01 10:34:00,
2013-04-01 05:40:00,47.5,39.9,28.52,East,90,0.0,0.0,75,0.00,,,0.00,meteohub,2013-04-01 10:40:00,
2013-04-01 05:45:00,46.9,39.7,28.53,East,90,0.0,0.0,76,0.00,,,0.00,meteohub,2013-04-01 10:45:00,
2013-04-01 05:50:00,46.8,40.3,28.53,NW,315,0.0,0.0,78,0.00,,,0.00,meteohub,2013-04-01 10:50:00,
2013-04-01 05:55:00,46.6,40.1,28.53,NW,315,0.0,0.0,78,0.00,,,0.00,meteohub,2013-04-01 10:55:00,
2013-04-01 06:00:00,46.4,40.3,28.53,NW,315,0.0,0.0,79,0.00,,,0.00,meteohub,2013-04-01 11:00:00,
2013-04-01 06:05:00,46.0,39.9,28.53,NW,315,0.0,0.0,79,0.00,,,0.00,meteohub,2013-04-01 11:05:00,
2013-04-01 06:10:00,46.2,40.1,28.53,NW,315,0.0,0.0,79,0.00,,,0.00,meteohub,2013-04-01 11:10:00,
2013-04-01 06:15:00,45.7,39.9,28.54,NW,315,0.0,0.0,80,0.00,,,0.00,meteohub,2013-04-01 11:15:00,
2013-04-01 06:20:00,45.5,40.1,28.53,North,0,0.0,0.0,81,0.00,,,0.00,meteohub,2013-04-01 11:20:00,
2013-04-01 06:25:00,45.0,39.6,28.53,SW,225,2.0,2.0,81,0.00,,,0.00,meteohub,2013-04-01 11:25:00,
2013-04-01 06:30:00,45.1,39.7,28.54,SW,225,0.0,2.0,81,0.00,,,0.00,meteohub,2013-04-01 11:30:00,
2013-04-01 06:35:00,45.0,39.7,28.54,SW,225,2.0,2.0,82,0.00,,,0.00,meteohub,2013-04-01 11:35:00,
2013-04-01 06:40:00,44.6,39.4,28.54,SW,225,2.0,2.0,82,0.00,,,0.00,meteohub,2013-04-01 11:40:00,
2013-04-01 06:45:00,44.4,39.6,28.54,SW,225,1.0,2.0,83,0.00,,,0.00,meteohub,2013-04-01 11:45:00,
2013-04-01 06:50:00,44.2,39.4,28.54,NE,45,2.0,2.0,83,0.00,,,0.00,meteohub,2013-04-01 11:50:00,
2013-04-01 06:55:00,44.1,39.9,28.54,NE,45,2.0,2.0,85,0.00,,,0.00,meteohub,2013-04-01 11:55:00,
2013-04-01 07:00:00,44.2,40.3,28.54,NE,45,0.0,2.0,86,0.00,,,0.00,meteohub,2013-04-01 12:00:00,
2013-04-01 07:05:00,44.2,40.1,28.54,NE,45,0.0,2.0,85,0.00,,,0.00,meteohub,2013-04-01 12:05:00,
2013-04-01 07:10:00,44.4,40.3,28.54,SW,225,0.0,2.0,85,0.00,,,0.00,meteohub,2013-04-01 12:10:00,
2013-04-01 07:15:00,44.6,40.6,28.54,SW,225,0.0,1.0,86,0.00,,,0.00,meteohub,2013-04-01 12:15:00,
2013-04-01 07:20:00,44.6,40.6,28.54,SW,225,0.0,0.0,86,0.00,,,0.00,meteohub,2013-04-01 12:20:00,
2013-04-01 07:25:00,45.0,41.0,28.55,East,90,2.0,2.0,86,0.00,,,0.00,meteohub,2013-04-01 12:25:00,
2013-04-01 07:30:00,45.5,41.2,28.54,SE,135,2.0,2.0,85,0.00,,,0.00,meteohub,2013-04-01 12:30:00,
2013-04-01 07:35:00,46.4,42.1,28.54,SE,135,2.0,2.0,85,0.00,,,0.00,meteohub,2013-04-01 12:35:00,
2013-04-01 07:40:00,46.8,42.3,28.54,East,90,2.0,2.0,84,0.00,,,0.00,meteohub,2013-04-01 12:40:00,
2013-04-01 07:45:00,47.3,42.8,28.55,East,90,0.0,2.0,84,0.00,,,0.00,meteohub,2013-04-01 12:45:00,
2013-04-01 07:50:00,47.8,43.0,28.54,East,90,2.0,2.0,83,0.00,,,0.00,meteohub,2013-04-01 12:50:00,
2013-04-01 07:55:00,48.6,43.3,28.54,East,90,2.0,2.0,82,0.00,,,0.00,meteohub,2013-04-01 12:55:00,
2013-04-01 08:00:00,49.1,43.5,28.55,SE,135,2.0,3.0,81,0.00,,,0.00,meteohub,2013-04-01 13:00:00,
2013-04-01 08:06:00,49.6,43.7,28.55,East,90,2.0,3.0,80,0.00,,,0.00,meteohub,2013-04-01 13:06:00,
2013-04-01 08:11:00,50.4,44.1,28.55,East,90,0.0,3.0,79,0.00,,,0.00,meteohub,2013-04-01 13:11:00,
2013-04-01 08:16:00,50.9,44.2,28.56,West,270,2.0,3.0,78,0.00,,,0.00,meteohub,2013-04-01 13:16:00,
2013-04-01 08:21:00,50.9,43.9,28.56,NW,315,2.0,2.0,77,0.00,,,0.00,meteohub,2013-04-01 13:21:00,
2013-04-01 08:26:00,51.6,44.6,28.56,North,0,0.0,2.0,77,0.00,,,0.00,meteohub,2013-04-01 13:26:00,
2013-04-01 08:31:00,52.2,44.8,28.56,SW,225,1.0,2.0,76,0.00,,,0.00,meteohub,2013-04-01 13:31:00,
2013-04-01 08:36:00,52.7,44.6,28.56,SE,135,0.0,2.0,74,0.00,,,0.00,meteohub,2013-04-01 13:36:00,
2013-04-01 08:41:00,53.1,44.2,28.56,South,180,2.0,2.0,72,0.00,,,0.00,meteohub,2013-04-01 13:41:00,
2013-04-01 08:46:00,53.4,44.6,28.56,SW,225,2.0,3.0,72,0.00,,,0.00,meteohub,2013-04-01 13:46:00,
2013-04-01 08:52:00,54.0,44.4,28.56,SW,225,3.0,4.0,70,0.00,,,0.00,meteohub,2013-04-01 13:52:00,
2013-04-01 08:57:00,54.5,44.6,28.57,South,180,4.0,4.0,69,0.00,,,0.00,meteohub,2013-04-01 13:57:00,
2013-04-01 09:02:00,54.9,44.4,28.57,SSW,203,4.0,4.0,68,0.00,,,0.00,meteohub,2013-04-01 14:02:00,
2013-04-01 09:07:00,55.0,44.6,28.57,SW,225,4.0,4.0,68,0.00,,,0.00,meteohub,2013-04-01 14:07:00,
2013-04-01 09:12:00,55.2,44.4,28.56,South,180,3.0,6.0,67,0.00,,,0.00,meteohub,2013-04-01 14:12:00,
2013-04-01 09:17:00,55.6,45.1,28.57,SW,225,5.0,6.0,68,0.00,,,0.00,meteohub,2013-04-01 14:17:00,
2013-04-01 09:22:00,55.9,44.8,28.57,South,180,4.0,6.0,66,0.00,,,0.00,meteohub,2013-04-01 14:22:00,
2013-04-01 09:27:00,56.5,44.8,28.57,South,180,5.0,8.0,65,0.00,,,0.00,meteohub,2013-04-01 14:27:00,
2013-04-01 09:32:00,57.0,45.0,28.57,South,180,5.0,8.0,64,0.00,,,0.00,meteohub,2013-04-01 14:32:00,
2013-04-01 09:37:00,57.6,45.1,28.57,South,180,6.0,7.0,63,0.00,,,0.00,meteohub,2013-04-01 14:37:00,
2013-04-01 09:42:00,58.3,45.7,28.57,South,180,3.0,7.0,63,0.00,,,0.00,meteohub,2013-04-01 14:42:00,
2013-04-01 09:47:00,58.8,45.3,28.56,East,90,3.0,7.0,61,0.00,,,0.00,meteohub,2013-04-01 14:47:00,
2013-04-01 09:52:00,59.7,45.0,28.57,South,180,6.0,7.0,58,0.00,,,0.00,meteohub,2013-04-01 14:52:00,
2013-04-01 09:57:00,60.3,45.9,28.56,South,180,5.0,7.0,59,0.00,,,0.00,meteohub,2013-04-01 14:57:00,
2013-04-01 10:02:00,60.3,45.0,28.57,South,180,7.0,8.0,57,0.00,,,0.00,meteohub,2013-04-01 15:02:00,
2013-04-01 10:07:00,61.3,45.0,28.57,South,180,8.0,8.0,55,0.00,,,0.00,meteohub,2013-04-01 15:07:00,
2013-04-01 10:12:00,61.7,45.0,28.57,SW,225,7.0,8.0,54,0.00,,,0.00,meteohub,2013-04-01 15:12:00,
2013-04-01 10:17:00,62.2,45.0,28.57,SW,225,8.0,8.0,53,0.00,,,0.00,meteohub,2013-04-01 15:17:00,
2013-04-01 10:22:00,62.8,45.3,28.57,SE,135,5.0,8.0,53,0.00,,,0.00,meteohub,2013-04-01 15:22:00,
2013-04-01 10:27:00,63.7,45.1,28.56,South,180,6.0,8.0,51,0.00,,,0.00,meteohub,2013-04-01 15:27:00,
2013-04-01 10:32:00,63.9,44.8,28.56,South,180,8.0,10.0,50,0.00,,,0.00,meteohub,2013-04-01 15:32:00,
2013-04-01 10:37:00,64.2,45.7,28.57,SE,135,5.0,10.0,51,0.00,,,0.00,meteohub,2013-04-01 15:37:00,
2013-04-01 10:43:00,65.1,45.5,28.57,SW,225,7.0,10.0,49,0.00,,,0.00,meteohub,2013-04-01 15:43:00,
2013-04-01 10:48:00,65.7,46.0,28.57,South,180,8.0,9.0,49,0.00,,,0.00,meteohub,2013-04-01 15:48:00,
2013-04-01 10:53:00,66.2,45.9,28.57,East,90,6.0,9.0,48,0.00,,,0.00,meteohub,2013-04-01 15:53:00,
2013-04-01 10:58:00,66.4,45.5,28.57,NW,315,7.0,11.0,47,0.00,,,0.00,meteohub,2013-04-01 15:58:00,
2013-04-01 11:03:00,67.1,45.7,28.57,SE,135,9.0,11.0,46,0.00,,,0.00,meteohub,2013-04-01 16:03:00,
2013-04-01 11:08:00,67.5,46.0,28.57,SW,225,11.0,11.0,46,0.00,,,0.00,meteohub,2013-04-01 16:08:00,
2013-04-01 11:13:00,68.2,46.6,28.57,SW,225,8.0,11.0,46,0.00,,,0.00,meteohub,2013-04-01 16:13:00,
2013-04-01 11:18:00,68.4,46.2,28.57,East,90,5.0,11.0,45,0.00,,,0.00,meteohub,2013-04-01 16:18:00,
2013-04-01 11:23:00,69.1,46.8,28.58,West,270,3.0,11.0,45,0.00,,,0.00,meteohub,2013-04-01 16:23:00,
2013-04-01 11:28:00,69.6,46.8,28.57,SW,225,9.0,9.0,44,0.00,,,0.00,meteohub,2013-04-01 16:28:00,
2013-04-01 11:33:00,70.0,46.4,28.57,West,270,5.0,9.0,43,0.00,,,0.00,meteohub,2013-04-01 16:33:00,
2013-04-01 11:38:00,70.7,47.1,28.57,East,90,4.0,9.0,43,0.00,,,0.00,meteohub,2013-04-01 16:38:00,
2013-04-01 11:43:00,71.4,46.6,28.57,West,270,10.0,10.0,41,0.00,,,0.00,meteohub,2013-04-01 16:43:00,
2013-04-01 11:48:00,72.0,47.7,28.58,South,180,4.0,11.0,42,0.00,,,0.00,meteohub,2013-04-01 16:48:00,
2013-04-01 11:53:00,72.3,48.0,28.58,East,90,4.0,11.0,42,0.00,,,0.00,meteohub,2013-04-01 16:53:00,
2013-04-01 11:58:00,72.9,47.1,28.58,East,90,4.0,11.0,40,0.00,,,0.00,meteohub,2013-04-01 16:58:00,
2013-04-01 12:03:00,73.6,47.1,28.57,NW,315,2.0,7.0,39,0.00,,,0.00,meteohub,2013-04-01 17:03:00,
2013-04-01 12:08:00,73.8,47.3,28.57,East,90,6.0,7.0,39,0.00,,,0.00,meteohub,2013-04-01 17:08:00,
2013-04-01 12:13:00,72.7,46.2,28.57,NE,45,8.0,8.0,39,0.00,,,0.00,meteohub,2013-04-01 17:13:00,
2013-04-01 12:18:00,71.8,46.8,28.56,East,90,9.0,9.0,41,0.00,,,0.00,meteohub,2013-04-01 17:18:00,
2013-04-01 12:23:00,72.3,47.3,28.57,NE,45,7.0,8.0,41,0.00,,,0.00,meteohub,2013-04-01 17:23:00,
2013-04-01 12:28:00,73.4,47.7,28.57,NE,45,6.0,10.0,40,0.00,,,0.00,meteohub,2013-04-01 17:28:00,
2013-04-01 12:33:00,72.7,46.2,28.57,NE,45,8.0,11.0,39,0.00,,,0.00,meteohub,2013-04-01 17:33:00,
2013-04-01 12:38:00,71.6,46.0,28.57,North,0,4.0,12.0,40,0.00,,,0.00,meteohub,2013-04-01 17:38:00,
2013-04-01 12:43:00,72.1,47.1,28.56,East,90,4.0,12.0,41,0.00,,,0.00,meteohub,2013-04-01 17:43:00,
2013-04-01 12:48:00,72.7,45.7,28.56,NE,45,8.0,12.0,38,0.00,,,0.00,meteohub,2013-04-01 17:48:00,
2013-04-01 12:53:00,72.7,47.7,28.57,NE,45,3.0,11.0,41,0.00,,,0.00,meteohub,2013-04-01 17:53:00,
2013-04-01 12:58:00,72.5,46.8,28.56,East,90,4.0,11.0,40,0.00,,,0.00,meteohub,2013-04-01 17:58:00,
2013-04-01 13:03:00,72.9,46.4,28.56,NE,45,10.0,11.0,39,0.00,,,0.00,meteohub,2013-04-01 18:03:00,
2013-04-01 13:08:00,72.5,47.5,28.56,SE,135,3.0,10.0,41,0.00,,,0.00,meteohub,2013-04-01 18:08:00,
2013-04-01 13:13:00,73.4,46.9,28.56,SE,135,4.0,10.0,39,0.00,,,0.00,meteohub,2013-04-01 18:13:00,
2013-04-01 13:18:00,73.9,46.8,28.56,NE,45,11.0,11.0,38,0.00,,,0.00,meteohub,2013-04-01 18:18:00,
2013-04-01 13:23:00,73.9,45.3,28.56,NE,45,8.0,11.0,36,0.00,,,0.00,meteohub,2013-04-01 18:23:00,
2013-04-01 13:28:00,74.3,46.4,28.55,East,90,10.0,16.0,37,0.00,,,0.00,meteohub,2013-04-01 18:28:00,
2013-04-01 13:33:00,74.1,46.2,28.55,NE,45,9.0,16.0,37,0.00,,,0.00,meteohub,2013-04-01 18:33:00,
2013-04-01 13:38:00,73.8,45.9,28.54,NE,45,7.0,16.0,37,0.00,,,0.00,meteohub,2013-04-01 18:38:00,
2013-04-01 13:43:00,74.3,47.1,28.54,East,90,10.0,12.0,38,0.00,,,0.00,meteohub,2013-04-01 18:43:00,
2013-04-01 13:49:00,74.7,46.6,28.54,NE,45,5.0,14.0,37,0.00,,,0.00,meteohub,2013-04-01 18:49:00,
2013-04-01 13:54:00,75.2,46.4,28.53,East,90,8.0,14.0,36,0.00,,,0.00,meteohub,2013-04-01 18:54:00,
2013-04-01 13:59:00,75.0,46.2,28.53,East,90,7.0,14.0,36,0.00,,,0.00,meteohub,2013-04-01 18:59:00,
2013-04-01 14:04:00,75.6,46.0,28.53,East,90,14.0,14.0,35,0.00,,,0.00,meteohub,2013-04-01 19:04:00,
2013-04-01 14:09:00,75.7,46.9,28.53,NE,45,7.0,14.0,36,0.00,,,0.00,meteohub,2013-04-01 19:09:00,
2013-04-01 14:14:00,75.9,45.5,28.52,NE,45,16.0,16.0,34,0.00,,,0.00,meteohub,2013-04-01 19:14:00,
2013-04-01 14:19:00,76.3,45.9,28.52,NE,45,7.0,15.0,34,0.00,,,0.00,meteohub,2013-04-01 19:19:00,
2013-04-01 14:24:00,77.4,46.8,28.51,East,90,11.0,16.0,34,0.00,,,0.00,meteohub,2013-04-01 19:24:00,
2013-04-01 14:29:00,76.8,46.4,28.51,NNE,23,9.0,16.0,34,0.00,,,0.00,meteohub,2013-04-01 19:29:00,
2013-04-01 14:34:00,76.8,45.5,28.51,East,90,11.0,15.0,33,0.00,,,0.00,meteohub,2013-04-01 19:34:00,
2013-04-01 14:39:00,77.4,46.0,28.51,East,90,10.0,15.0,33,0.00,,,0.00,meteohub,2013-04-01 19:39:00,
2013-04-01 14:44:00,77.9,47.3,28.50,East,90,6.0,15.0,34,0.00,,,0.00,meteohub,2013-04-01 19:44:00,
2013-04-01 14:49:00,77.9,45.7,28.50,East,90,8.0,13.0,32,0.00,,,0.00,meteohub,2013-04-01 19:49:00,
2013-04-01 14:54:00,77.9,45.7,28.50,East,90,14.0,14.0,32,0.00,,,0.00,meteohub,2013-04-01 19:54:00,
2013-04-01 14:59:00,77.2,45.9,28.49,East,90,10.0,11.0,33,0.00,,,0.00,meteohub,2013-04-01 19:59:00,
2013-04-01 15:04:00,77.5,46.2,28.49,NE,45,8.0,14.0,33,0.00,,,0.00,meteohub,2013-04-01 20:04:00,
2013-04-01 15:09:00,78.3,46.8,28.49,East,90,7.0,14.0,33,0.00,,,0.00,meteohub,2013-04-01 20:09:00,
2013-04-01 15:14:00,78.6,44.6,28.49,East,90,11.0,12.0,30,0.00,,,0.00,meteohub,2013-04-01 20:14:00,
2013-04-01 15:19:00,78.3,42.4,28.48,East,90,11.0,12.0,28,0.00,,,0.00,meteohub,2013-04-01 20:19:00,
2013-04-01 15:24:00,78.4,44.4,28.48,SE,135,5.0,15.0,30,0.00,,,0.00,meteohub,2013-04-01 20:24:00,
2013-04-01 15:29:00,78.4,44.4,28.48,SE,135,7.0,15.0,30,0.00,,,0.00,meteohub,2013-04-01 20:29:00,
2013-04-01 15:34:00,77.7,44.6,28.48,East,90,16.0,16.0,31,0.00,,,0.00,meteohub,2013-04-01 20:34:00,
2013-04-01 15:39:00,77.7,44.6,28.47,East,90,9.0,12.0,31,0.00,,,0.00,meteohub,2013-04-01 20:39:00,
2013-04-01 15:44:00,78.4,44.4,28.47,East,90,15.0,16.0,30,0.00,,,0.00,meteohub,2013-04-01 20:44:00,
2013-04-01 15:49:00,78.3,44.2,28.47,SE,135,7.0,16.0,30,0.00,,,0.00,meteohub,2013-04-01 20:49:00,
2013-04-01 15:54:00,78.6,44.6,28.47,East,90,12.0,15.0,30,0.00,,,0.00,meteohub,2013-04-01 20:54:00,
2013-04-01 15:59:00,78.8,45.7,28.47,NE,45,9.0,15.0,31,0.00,,,0.00,meteohub,2013-04-01 20:59:00,
2013-04-01 16:04:00,78.6,44.6,28.46,NE,45,11.0,14.0,30,0.00,,,0.00,meteohub,2013-04-01 21:04:00,
2013-04-01 16:09:00,78.3,45.1,28.46,East,90,13.0,13.0,31,0.00,,,0.00,meteohub,2013-04-01 21:09:00,
2013-04-01 16:14:00,79.2,45.1,28.46,East,90,7.0,16.0,30,0.00,,,0.00,meteohub,2013-04-01 21:14:00,
2013-04-01 16:19:00,78.6,45.5,28.46,South,180,7.0,16.0,31,0.00,,,0.00,meteohub,2013-04-01 21:19:00,
2013-04-01 16:24:00,78.6,46.2,28.45,East,90,10.0,14.0,32,0.00,,,0.00,meteohub,2013-04-01 21:24:00,
2013-04-01 16:29:00,78.3,46.0,28.45,East,90,16.0,16.0,32,0.00,,,0.00,meteohub,2013-04-01 21:29:00,
2013-04-01 16:34:00,77.9,46.4,28.45,ESE,113,13.0,17.0,33,0.00,,,0.00,meteohub,2013-04-01 21:34:00,
2013-04-01 16:39:00,78.6,47.1,28.45,East,90,8.0,17.0,33,0.00,,,0.00,meteohub,2013-04-01 21:39:00,
2013-04-01 16:45:00,78.6,46.2,28.45,SE,135,8.0,17.0,32,0.00,,,0.00,meteohub,2013-04-01 21:45:00,
2013-04-01 16:50:00,77.5,46.2,28.45,East,90,6.0,14.0,33,0.00,,,0.00,meteohub,2013-04-01 21:50:00,
2013-04-01 16:55:00,76.8,47.1,28.44,ESE,113,9.0,13.0,35,0.00,,,0.00,meteohub,2013-04-01 21:55:00,
2013-04-01 17:00:00,76.3,45.9,28.45,East,90,10.0,13.0,34,0.00,,,0.00,meteohub,2013-04-01 22:00:00,
2013-04-01 17:05:00,75.9,47.1,28.45,East,90,6.0,13.0,36,0.00,,,0.00,meteohub,2013-04-01 22:05:00,
2013-04-01 17:10:00,75.9,47.1,28.45,NE,45,11.0,12.0,36,0.00,,,0.00,meteohub,2013-04-01 22:10:00,
2013-04-01 17:15:00,75.6,46.8,28.45,East,90,8.0,13.0,36,0.00,,,0.00,meteohub,2013-04-01 22:15:00,
2013-04-01 17:20:00,75.7,46.9,28.45,East,90,9.0,13.0,36,0.00,,,0.00,meteohub,2013-04-01 22:20:00,
2013-04-01 17:25:00,75.6,46.8,28.45,NE,45,10.0,13.0,36,0.00,,,0.00,meteohub,2013-04-01 22:25:00,
2013-04-01 17:30:00,71.8,48.7,28.45,East,90,15.0,19.0,44,0.00,,,0.00,meteohub,2013-04-01 22:30:00,
2013-04-01 17:35:00,69.4,48.9,28.45,NE,45,17.0,24.0,48,0.00,,,0.00,meteohub,2013-04-01 22:35:00,
2013-04-01 17:40:00,68.4,49.5,28.45,North,0,15.0,24.0,51,0.00,,,0.00,meteohub,2013-04-01 22:40:00,
2013-04-01 17:45:00,67.1,48.9,28.45,NE,45,20.0,26.0,52,0.00,,,0.00,meteohub,2013-04-01 22:45:00,
2013-04-01 17:50:00,66.7,49.1,28.46,NE,45,25.0,26.0,53,0.00,,,0.00,meteohub,2013-04-01 22:50:00,
2013-04-01 17:55:00,66.6,48.9,28.46,NE,45,25.0,26.0,53,0.00,,,0.00,meteohub,2013-04-01 22:55:00,
2013-04-01 18:00:00,66.4,48.7,28.46,North,0,21.0,25.0,53,0.00,,,0.00,meteohub,2013-04-01 23:00:00,
2013-04-01 18:05:00,66.2,49.1,28.46,NE,45,15.0,25.0,54,0.00,,,0.00,meteohub,2013-04-01 23:05:00,
2013-04-01 18:10:00,65.7,49.5,28.46,NE,45,18.0,25.0,56,0.00,,,0.00,meteohub,2013-04-01 23:10:00,
2013-04-01 18:15:00,65.3,49.6,28.47,NE,45,19.0,23.0,57,0.00,,,0.00,meteohub,2013-04-01 23:15:00,
2013-04-01 18:20:00,64.8,49.1,28.48,NE,45,10.0,23.0,57,0.00,,,0.00,meteohub,2013-04-01 23:20:00,
2013-04-01 18:25:00,64.8,49.1,28.48,North,0,12.0,23.0,57,0.00,,,0.00,meteohub,2013-04-01 23:25:00,
2013-04-01 18:30:00,64.6,48.9,28.47,NE,45,17.0,23.0,57,0.00,,,0.00,meteohub,2013-04-01 23:30:00,
2013-04-01 18:35:00,64.2,48.2,28.47,NE,45,20.0,21.0,56,0.00,,,0.00,meteohub,2013-04-01 23:35:00,
2013-04-01 18:40:00,63.5,49.8,28.47,East,90,16.0,24.0,61,0.00,,,0.00,meteohub,2013-04-01 23:40:00,
2013-04-01 18:45:00,62.8,50.0,28.48,SW,225,10.0,24.0,63,0.00,,,0.00,meteohub,2013-04-01 23:45:00,
2013-04-01 18:50:00,62.6,48.9,28.48,NE,45,17.0,22.0,61,0.00,,,0.00,meteohub,2013-04-01 23:50:00,
2013-04-01 18:55:00,62.8,49.1,28.49,North,0,14.0,23.0,61,0.00,,,0.00,meteohub,2013-04-01 23:55:00,
2013-04-01 19:00:00,62.6,48.6,28.50,NE,45,12.0,23.0,60,0.00,,,0.00,meteohub,2013-04-02 00:00:00,
2013-04-01 19:05:00,62.1,49.8,28.50,North,0,11.0,21.0,64,0.00,,,0.00,meteohub,2013-04-02 00:05:00,
2013-04-01 19:10:00,61.5,50.5,28.51,North,0,11.0,20.0,67,0.01,,,0.01,meteohub,2013-04-02 00:10:00,
2013-04-01 19:15:00,60.8,49.8,28.51,North,0,24.0,24.0,67,0.01,,,0.01,meteohub,2013-04-02 00:15:00,
2013-04-01 19:20:00,59.4,48.7,28.51,North,0,15.0,24.0,68,0.01,,,0.01,meteohub,2013-04-02 00:20:00,
2013-04-01 19:25:00,58.1,48.7,28.53,North,0,15.0,24.0,71,0.01,,,0.01,meteohub,2013-04-02 00:25:00,
2013-04-01 19:30:00,57.0,47.3,28.53,North,0,15.0,24.0,70,0.01,,,0.01,meteohub,2013-04-02 00:30:00,
2013-04-01 19:35:00,56.1,47.3,28.53,North,0,15.0,18.0,72,0.01,,,0.01,meteohub,2013-04-02 00:35:00,
2013-04-01 19:40:00,54.9,47.5,28.49,NNW,338,11.0,21.0,76,0.02,,,0.02,meteohub,2013-04-02 00:40:00,
2013-04-01 19:45:00,54.0,47.3,28.48,NE,45,14.0,21.0,78,0.04,,,0.04,meteohub,2013-04-02 00:45:00,
2013-04-01 19:50:00,53.4,47.5,28.47,NE,45,19.0,21.0,80,0.04,,,0.04,meteohub,2013-04-02 00:50:00,
2013-04-01 19:55:00,53.1,46.8,28.47,ENE,68,17.0,21.0,79,0.04,,,0.04,meteohub,2013-04-02 00:55:00,
2013-04-01 20:00:00,52.5,45.9,28.47,NE,45,19.0,21.0,78,0.04,,,0.04,meteohub,2013-04-02 01:00:00,
2013-04-01 20:05:00,52.2,45.9,28.49,North,0,11.0,22.0,79,0.04,,,0.04,meteohub,2013-04-02 01:05:00,
2013-04-01 20:10:00,52.0,45.7,28.50,NE,45,13.0,22.0,79,0.02,,,0.04,meteohub,2013-04-02 01:10:00,
2013-04-01 20:15:00,52.2,45.5,28.50,NE,45,16.0,22.0,78,0.02,,,0.04,meteohub,2013-04-02 01:15:00,
2013-04-01 20:20:00,51.6,45.0,28.50,NE,45,13.0,19.0,78,0.02,,,0.04,meteohub,2013-04-02 01:20:00,
2013-04-01 20:26:00,51.6,44.6,28.51,North,0,15.0,19.0,77,0.02,,,0.04,meteohub,2013-04-02 01:26:00,
2013-04-01 20:31:00,51.3,44.2,28.51,NE,45,17.0,27.0,77,0.02,,,0.04,meteohub,2013-04-02 01:31:00,
2013-04-01 20:36:00,51.1,44.4,28.51,North,0,11.0,27.0,78,0.01,,,0.04,meteohub,2013-04-02 01:36:00,
2013-04-01 20:41:00,51.1,44.1,28.51,NE,45,22.0,27.0,77,0.01,,,0.04,meteohub,2013-04-02 01:41:00,
2013-04-01 20:46:00,50.7,43.7,28.51,NE,45,22.0,26.0,77,0.00,,,0.04,meteohub,2013-04-02 01:46:00,
2013-04-01 20:51:00,50.4,43.7,28.51,NE,45,16.0,26.0,78,0.00,,,0.04,meteohub,2013-04-02 01:51:00,
2013-04-01 20:56:00,50.2,43.5,28.51,North,0,19.0,26.0,78,0.00,,,0.04,meteohub,2013-04-02 01:56:00,
2013-04-01 21:01:00,50.2,43.9,28.50,East,90,15.0,28.0,79,0.00,,,0.04,meteohub,2013-04-02 02:01:00,
2013-04-01 21:06:00,49.8,43.5,28.50,NE,45,18.0,28.0,79,0.00,,,0.04,meteohub,2013-04-02 02:06:00,
2013-04-01 21:11:00,49.5,43.2,28.49,NE,45,21.0,28.0,79,0.00,,,0.04,meteohub,2013-04-02 02:11:00,
2013-04-01 21:16:00,49.5,43.2,28.51,NE,45,22.0,28.0,79,0.00,,,0.04,meteohub,2013-04-02 02:16:00,
2013-04-01 21:21:00,49.1,42.8,28.51,NE,45,21.0,28.0,79,0.00,,,0.04,meteohub,2013-04-02 02:21:00,
2013-04-01 21:26:00,48.9,43.0,28.51,NE,45,12.0,25.0,80,0.00,,,0.04,meteohub,2013-04-02 02:26:00,
2013-04-01 21:32:00,48.7,42.8,28.51,NE,45,20.0,25.0,80,0.00,,,0.04,meteohub,2013-04-02 02:32:00,
2013-04-01 21:37:00,48.6,42.6,28.52,North,0,15.0,25.0,80,0.00,,,0.04,meteohub,2013-04-02 02:37:00,
2013-04-01 21:42:00,48.4,42.4,28.51,North,0,19.0,21.0,80,0.00,,,0.04,meteohub,2013-04-02 02:42:00,
2013-04-01 21:47:00,48.4,42.4,28.52,North,0,10.0,23.0,80,0.00,,,0.04,meteohub,2013-04-02 02:47:00,
2013-04-01 21:52:00,48.0,42.1,28.53,North,0,18.0,23.0,80,0.00,,,0.04,meteohub,2013-04-02 02:52:00,
2013-04-01 21:57:00,48.2,42.3,28.53,SW,225,17.0,23.0,80,0.00,,,0.04,meteohub,2013-04-02 02:57:00,
2013-04-01 22:02:00,47.8,41.9,28.53,NE,45,15.0,23.0,80,0.00,,,0.04,meteohub,2013-04-02 03:02:00,
2013-04-01 22:07:00,47.7,41.7,28.53,NE,45,12.0,23.0,80,0.00,,,0.04,meteohub,2013-04-02 03:07:00,
2013-04-01 22:12:00,47.7,41.7,28.54,NE,45,11.0,21.0,80,0.00,,,0.04,meteohub,2013-04-02 03:12:00,
2013-04-01 22:17:00,47.7,41.7,28.54,North,0,17.0,20.0,80,0.00,,,0.04,meteohub,2013-04-02 03:17:00,
2013-04-01 22:22:00,47.3,41.2,28.54,NE,45,21.0,21.0,79,0.00,,,0.04,meteohub,2013-04-02 03:22:00,
2013-04-01 22:27:00,47.3,41.2,28.54,North,0,15.0,23.0,79,0.00,,,0.04,meteohub,2013-04-02 03:27:00,
2013-04-01 22:32:00,46.9,41.2,28.54,NE,45,16.0,27.0,80,0.00,,,0.04,meteohub,2013-04-02 03:32:00,
2013-04-01 22:37:00,47.1,41.4,28.54,NE,45,26.0,27.0,80,0.00,,,0.04,meteohub,2013-04-02 03:37:00,
2013-04-01 22:42:00,47.1,41.4,28.55,North,0,21.0,27.0,80,0.00,,,0.04,meteohub,2013-04-02 03:42:00,
2013-04-01 22:47:00,46.8,41.2,28.55,North,0,17.0,26.0,81,0.00,,,0.04,meteohub,2013-04-02 03:47:00,
2013-04-01 22:52:00,46.2,41.0,28.55,NE,45,21.0,26.0,82,0.00,,,0.04,meteohub,2013-04-02 03:52:00,
2013-04-01 22:57:00,45.9,41.0,28.55,North,0,15.0,27.0,83,0.00,,,0.04,meteohub,2013-04-02 03:57:00,
2013-04-01 23:00:00,45.5,40.6,28.55,NE,45,20.0,27.0,83,0.00,,,0.04,meteohub,2013-04-02 04:00:00,
2013-04-01 23:05:00,45.5,40.6,28.55,North,0,17.0,27.0,83,0.00,,,0.04,meteohub,2013-04-02 04:05:00,
2013-04-01 23:10:00,45.5,40.6,28.55,East,90,16.0,23.0,83,0.00,,,0.04,meteohub,2013-04-02 04:10:00,
2013-04-01 23:15:00,45.0,40.5,28.56,NW,315,9.0,22.0,84,0.00,,,0.04,meteohub,2013-04-02 04:15:00,
2013-04-01 23:20:00,44.8,40.3,28.55,North,0,19.0,27.0,84,0.00,,,0.04,meteohub,2013-04-02 04:20:00,
2013-04-01 23:25:00,44.8,40.5,28.55,North,0,18.0,27.0,85,0.00,,,0.04,meteohub,2013-04-02 04:25:00,
2013-04-01 23:30:00,45.0,40.6,28.56,North,0,10.0,27.0,85,0.00,,,0.04,meteohub,2013-04-02 04:30:00,
2013-04-01 23:35:00,44.2,40.1,28.56,NE,45,17.0,22.0,85,0.00,,,0.04,meteohub,2013-04-02 04:35:00,
2013-04-01 23:40:00,44.1,40.1,28.55,NE,45,13.0,22.0,86,0.00,,,0.04,meteohub,2013-04-02 04:40:00,
2013-04-01 23:45:00,43.9,39.9,28.55,NE,45,16.0,21.0,86,0.00,,,0.04,meteohub,2013-04-02 04:45:00,
2013-04-01 23:50:00,43.5,39.9,28.56,NE,45,15.0,23.0,87,0.00,,,0.04,meteohub,2013-04-02 04:50:00,
2013-04-01 23:56:00,43.7,40.1,28.56,North,0,15.0,23.0,87,0.00,,,0.04,meteohub,2013-04-02 04:56:00,